createdAt,value
2018-07-27T00:00:00.496Z,100448.50
2018-07-27T00:02:28.716Z,100443.05
2018-07-27T00:04:56.835Z,100447.66
2018-07-27T00:07:24.867Z,100452.26
2018-07-27T00:09:52.966Z,100452.47
2018-07-27T00:12:21.048Z,100455.66
2018-07-27T00:14:49.145Z,100457.31
2018-07-27T00:17:17.431Z,100452.52
2018-07-27T00:19:45.564Z,100449.88
2018-07-27T00:22:13.891Z,100453.92
2018-07-27T00:24:42.119Z,100448.74
2018-07-27T00:27:10.387Z,100450.95
2018-07-27T00:29:38.486Z,100450.42
2018-07-27T00:32:06.769Z,100455.07
2018-07-27T00:34:35.092Z,100449.70
2018-07-27T00:37:03.496Z,100454.81
2018-07-27T00:39:31.944Z,100454.63
2018-07-27T00:42:00.041Z,100450.25
2018-07-27T00:44:28.503Z,100449.11
2018-07-27T00:46:56.890Z,100449.36
2018-07-27T00:49:25.016Z,100446.20
2018-07-27T00:51:53.107Z,100444.27
2018-07-27T00:54:21.210Z,100443.73
2018-07-27T00:56:49.470Z,100441.53
2018-07-27T00:59:17.738Z,100444.98
2018-07-27T01:01:46.815Z,100438.72
2018-07-27T01:04:14.868Z,100438.10
2018-07-27T01:06:43.940Z,100434.25
2018-07-27T01:09:12.152Z,100431.25
2018-07-27T01:11:41.241Z,100428.44
2018-07-27T01:14:09.294Z,100418.40
2018-07-27T01:16:37.340Z,100425.80
2018-07-27T01:19:05.828Z,100420.60
2018-07-27T01:21:33.912Z,100416.37
2018-07-27T01:24:01.951Z,100418.58
2018-07-27T01:26:29.971Z,100411.73
2018-07-27T01:28:58.100Z,100418.05
2018-07-27T01:31:26.167Z,100413.02
2018-07-27T01:33:54.211Z,100410.20
2018-07-27T01:36:22.471Z,100413.63
2018-07-27T01:38:50.487Z,100412.07
2018-07-27T01:41:18.522Z,100412.50
2018-07-27T01:43:46.674Z,100416.56
2018-07-27T01:46:14.849Z,100408.62
2018-07-27T01:48:42.848Z,100409.17
2018-07-27T01:51:10.863Z,100411.69
2018-07-27T01:53:38.917Z,100409.76
2018-07-27T01:56:06.939Z,100412.50
2018-07-27T01:58:35.067Z,100409.39
2018-07-27T02:01:03.084Z,100410.12
2018-07-27T02:03:31.469Z,100408.88
2018-07-27T02:06:00.046Z,100415.56
2018-07-27T02:08:29.451Z,100410.47
2018-07-27T02:10:58.361Z,100409.02
2018-07-27T02:13:27.487Z,100408.60
2018-07-27T02:15:56.566Z,100407.34
2018-07-27T02:18:26.295Z,100403.66
2018-07-27T02:20:55.498Z,100400.64
2018-07-27T02:23:24.787Z,100404.02
2018-07-27T02:25:54.056Z,100401.00
2018-07-27T02:28:23.051Z,100398.88
2018-07-27T02:30:53.217Z,100396.73
2018-07-27T02:33:22.117Z,100392.37
2018-07-27T02:35:52.314Z,100394.98
2018-07-27T02:38:21.820Z,100390.96
2018-07-27T02:40:51.519Z,100384.97
2018-07-27T02:43:21.413Z,100381.92
2018-07-27T02:45:52.071Z,100385.50
2018-07-27T02:48:21.687Z,100388.56
2018-07-27T02:50:52.161Z,100380.59
2018-07-27T02:53:20.191Z,100384.27
2018-07-27T02:55:48.223Z,100382.13
2018-07-27T02:58:16.243Z,100384.31
2018-07-27T03:00:44.305Z,100384.45
2018-07-27T03:03:12.333Z,100382.16
2018-07-27T03:05:40.384Z,100385.34
2018-07-27T03:08:08.416Z,100381.64
2018-07-27T03:10:36.467Z,100385.13
2018-07-27T03:13:04.519Z,100383.34
2018-07-27T03:15:32.624Z,100384.81
2018-07-27T03:18:00.767Z,100380.66
2018-07-27T03:20:28.948Z,100387.33
2018-07-27T03:22:57.776Z,100381.16
2018-07-27T03:25:25.924Z,100377.36
2018-07-27T03:27:53.985Z,100380.43
2018-07-27T03:30:22.031Z,100376.17
2018-07-27T03:32:50.071Z,100381.30
2018-07-27T03:35:18.110Z,100386.20
2018-07-27T03:37:46.133Z,100388.88
2018-07-27T03:40:14.196Z,100386.58
2018-07-27T03:42:42.263Z,100393.09
2018-07-27T03:45:10.315Z,100393.23
2018-07-27T03:47:38.346Z,100394.14
2018-07-27T03:50:06.411Z,100393.39
2018-07-27T03:52:34.500Z,100398.20
2018-07-27T03:55:02.623Z,100391.44
2018-07-27T03:57:30.920Z,100395.11
2018-07-27T03:59:59.603Z,100393.80
2018-07-27T04:02:27.642Z,100392.55
2018-07-27T04:04:55.983Z,100395.11
2018-07-27T04:07:24.042Z,100391.16
2018-07-27T04:09:52.235Z,100399.50
2018-07-27T04:12:23.496Z,100397.41
2018-07-27T04:14:51.918Z,100394.75
2018-07-27T04:17:19.948Z,100400.30
2018-07-27T04:19:47.988Z,100400.25
2018-07-27T04:22:16.020Z,100400.36
2018-07-27T04:24:44.222Z,100397.44
2018-07-27T04:27:12.299Z,100403.95
2018-07-27T04:29:40.324Z,100403.52
2018-07-27T04:32:08.368Z,100403.91
2018-07-27T04:34:36.413Z,100402.80
2018-07-27T04:37:04.467Z,100399.84
2018-07-27T04:39:32.510Z,100395.70
2018-07-27T04:42:00.554Z,100398.75
2018-07-27T04:44:28.907Z,100401.33
2018-07-27T04:46:57.484Z,100391.73
2018-07-27T04:49:26.241Z,100394.84
2018-07-27T04:51:54.562Z,100394.19
2018-07-27T04:54:23.716Z,100390.16
2018-07-27T04:56:52.480Z,100392.88
2018-07-27T04:59:21.227Z,100385.76
2018-07-27T05:01:49.309Z,100392.28
2018-07-27T05:04:17.450Z,100384.31
2018-07-27T05:06:45.561Z,100383.36
2018-07-27T05:09:21.087Z,100387.98
2018-07-27T05:11:49.191Z,100383.25
2018-07-27T05:14:17.206Z,100378.26
2018-07-27T05:16:45.242Z,100382.86
2018-07-27T05:19:13.282Z,100381.68
2018-07-27T05:21:41.536Z,100387.25
2018-07-27T05:24:09.572Z,100381.62
2018-07-27T05:26:37.724Z,100375.65
2018-07-27T05:29:05.836Z,100374.06
2018-07-27T05:31:33.877Z,100378.48
2018-07-27T05:34:01.989Z,100384.28
2018-07-27T05:36:30.108Z,100372.08
2018-07-27T05:38:58.463Z,100369.37
2018-07-27T05:41:26.634Z,100376.33
2018-07-27T05:43:54.671Z,100375.58
2018-07-27T05:46:25.055Z,100379.73
2018-07-27T05:48:53.099Z,100375.73
2018-07-27T05:51:21.148Z,100376.05
2018-07-27T05:53:49.982Z,100371.39
2018-07-27T05:56:18.111Z,100374.40
2018-07-27T05:58:46.167Z,100374.64
2018-07-27T06:01:14.339Z,100382.83
2018-07-27T06:03:42.339Z,100389.30
2018-07-27T06:06:10.623Z,100379.66
2018-07-27T06:08:38.779Z,100382.23
2018-07-27T06:11:07.093Z,100381.48
2018-07-27T06:13:35.585Z,100380.51
2018-07-27T06:16:03.674Z,100381.80
2018-07-27T06:18:32.133Z,100380.47
2018-07-27T06:21:00.269Z,100383.93
2018-07-27T06:23:28.603Z,100378.30
2018-07-27T06:25:56.896Z,100380.36
2018-07-27T06:28:25.001Z,100380.69
2018-07-27T06:30:53.139Z,100379.80
2018-07-27T06:33:21.233Z,100374.97
2018-07-27T06:35:49.314Z,100378.45
2018-07-27T06:38:17.386Z,100372.05
2018-07-27T06:40:45.404Z,100374.80
2018-07-27T06:43:13.452Z,100374.00
2018-07-27T06:45:41.500Z,100365.44
2018-07-27T06:48:13.849Z,100371.38
2018-07-27T06:50:41.978Z,100363.59
2018-07-27T06:53:10.263Z,100363.42
2018-07-27T06:55:38.407Z,100366.00
2018-07-27T06:58:06.464Z,100366.58
2018-07-27T07:00:34.549Z,100359.96
2018-07-27T07:03:02.603Z,100366.41
2018-07-27T07:05:30.928Z,100362.59
2018-07-27T07:07:58.991Z,100368.36
2018-07-27T07:10:27.434Z,100369.76
2018-07-27T07:12:55.490Z,100365.22
2018-07-27T07:15:23.929Z,100364.56
2018-07-27T07:17:52.167Z,100368.13
2018-07-27T07:20:20.488Z,100370.09
2018-07-27T07:22:48.605Z,100371.65
2018-07-27T07:25:17.334Z,100361.83
2018-07-27T07:27:45.825Z,100367.38
2018-07-27T07:30:14.228Z,100369.45
2018-07-27T07:32:42.598Z,100362.95
2018-07-27T07:35:10.895Z,100369.15
2018-07-27T07:37:39.147Z,100359.46
2018-07-27T07:40:08.404Z,100362.84
2018-07-27T07:42:36.498Z,100357.03
2018-07-27T07:45:05.146Z,100350.31
2018-07-27T07:47:33.657Z,100352.32
2018-07-27T07:50:02.134Z,100350.31
2018-07-27T07:52:30.740Z,100349.67
2018-07-27T07:54:58.976Z,100344.19
2018-07-27T07:57:27.345Z,100351.89
2018-07-27T07:59:56.028Z,100345.13
2018-07-27T08:02:24.429Z,100344.98
2018-07-27T08:04:52.853Z,100336.80
2018-07-27T08:07:21.239Z,100331.87
2018-07-27T08:09:49.571Z,100336.66
2018-07-27T08:12:18.371Z,100327.80
2018-07-27T08:14:46.767Z,100329.97
2018-07-27T08:17:15.437Z,100327.76
2018-07-27T08:19:43.893Z,100325.73
2018-07-27T08:22:12.309Z,100319.42
2018-07-27T08:24:40.592Z,100316.21
2018-07-27T08:27:08.848Z,100310.41
2018-07-27T08:29:38.501Z,100313.86
2018-07-27T08:32:07.226Z,100317.31
2018-07-27T08:34:35.297Z,100309.25
2018-07-27T08:37:03.437Z,100306.27
2018-07-27T08:39:33.453Z,100304.17
2018-07-27T08:42:02.947Z,100303.77
2018-07-27T08:44:32.420Z,100304.63
2018-07-27T08:47:00.785Z,100305.64
2018-07-27T08:49:29.007Z,100307.98
2018-07-27T08:51:57.037Z,100292.20
2018-07-27T08:54:25.691Z,100294.42
2018-07-27T08:56:54.024Z,100292.19
2018-07-27T08:59:22.151Z,100289.77
2018-07-27T09:01:50.701Z,100286.58
2018-07-27T09:04:20.255Z,100285.97
2018-07-27T09:06:48.929Z,100288.48
2018-07-27T09:09:17.903Z,100287.80
2018-07-27T09:11:46.036Z,100282.42
2018-07-27T09:14:14.348Z,100282.14
2018-07-27T09:16:42.409Z,100279.55
2018-07-27T09:19:10.443Z,100278.38
2018-07-27T09:21:38.519Z,100274.69
2018-07-27T09:24:06.564Z,100274.63
2018-07-27T09:26:34.608Z,100271.95
2018-07-27T09:29:02.663Z,100263.33
2018-07-27T09:31:30.703Z,100263.78
2018-07-27T09:33:58.757Z,100264.19
2018-07-27T09:36:26.809Z,100259.33
2018-07-27T09:38:54.835Z,100254.46
2018-07-27T09:41:22.894Z,100255.21
2018-07-27T09:43:50.928Z,100252.14
2018-07-27T09:46:18.999Z,100250.37
2018-07-27T09:48:51.707Z,100247.82
2018-07-27T09:51:20.876Z,100248.39
2018-07-27T09:53:48.988Z,100252.28
2018-07-27T09:56:16.948Z,100244.11
2018-07-27T09:58:44.974Z,100235.86
2018-07-27T10:01:18.508Z,100229.47
2018-07-27T10:03:46.555Z,100234.09
2018-07-27T10:06:14.624Z,100229.45
2018-07-27T10:08:42.667Z,100229.12
2018-07-27T10:11:10.707Z,100224.89
2018-07-27T10:13:38.763Z,100223.61
2018-07-27T10:16:07.203Z,100222.71
2018-07-27T10:18:35.367Z,100223.69
2018-07-27T10:21:03.327Z,100221.42
2018-07-27T10:23:31.386Z,100218.38
2018-07-27T10:25:59.480Z,100216.89
2018-07-27T10:28:27.476Z,100216.31
2018-07-27T10:30:55.525Z,100215.17
2018-07-27T10:33:23.559Z,100211.02
2018-07-27T10:35:51.644Z,100219.09
2018-07-27T10:38:19.936Z,100207.77
2018-07-27T10:40:47.975Z,100209.59
2018-07-27T10:43:16.026Z,100208.42
2018-07-27T10:45:44.070Z,100196.55
2018-07-27T10:48:12.185Z,100204.23
2018-07-27T10:50:40.239Z,100194.44
2018-07-27T10:53:08.322Z,100195.61
2018-07-27T10:55:36.346Z,100194.18
2018-07-27T10:58:04.442Z,100186.50
2018-07-27T11:00:32.729Z,100180.54
2018-07-27T11:03:01.096Z,100186.14
2018-07-27T11:05:29.728Z,100189.55
2018-07-27T11:07:59.406Z,100184.08
2018-07-27T11:10:28.733Z,100169.37
2018-07-27T11:12:57.986Z,100173.77
2018-07-27T11:15:29.161Z,100168.59
2018-07-27T11:17:59.712Z,100164.16
2018-07-27T11:20:28.666Z,100169.34
2018-07-27T11:22:57.437Z,100157.02
2018-07-27T11:25:27.078Z,100162.87
2018-07-27T11:27:57.417Z,100157.94
2018-07-27T11:30:29.009Z,100159.89
2018-07-27T11:32:58.241Z,100154.03
2018-07-27T11:35:26.288Z,100160.66
2018-07-27T11:37:54.399Z,100155.58
2018-07-27T11:40:22.433Z,100151.45
2018-07-27T11:42:50.503Z,100126.98
2018-07-27T11:45:18.551Z,100142.34
2018-07-27T11:47:46.811Z,100141.81
2018-07-27T11:50:14.867Z,100140.91
2018-07-27T11:52:43.091Z,100141.66
2018-07-27T11:55:11.136Z,100141.69
2018-07-27T11:57:39.200Z,100147.03
2018-07-27T12:00:07.318Z,100141.58
2018-07-27T12:02:35.393Z,100131.80
2018-07-27T12:05:03.447Z,100122.17
2018-07-27T12:07:31.488Z,100115.56
2018-07-27T12:10:00.004Z,100125.19
2018-07-27T12:12:28.689Z,100118.14
2018-07-27T12:14:57.446Z,100110.73
2018-07-27T12:17:25.877Z,100114.12
2018-07-27T12:19:54.368Z,100107.75
2018-07-27T12:22:23.134Z,100104.38
2018-07-27T12:24:52.023Z,100104.49
2018-07-27T12:27:23.184Z,100098.11
2018-07-27T12:29:52.125Z,100103.58
2018-07-27T12:32:21.672Z,100106.28
2018-07-27T12:34:50.012Z,100099.05
2018-07-27T12:37:18.073Z,100096.68
2018-07-27T12:39:46.195Z,100093.30
2018-07-27T12:42:14.413Z,100085.63
2018-07-27T12:44:42.461Z,100080.16
2018-07-27T12:47:10.718Z,100080.93
2018-07-27T12:49:40.594Z,100082.76
2018-07-27T12:52:08.668Z,100074.95
2018-07-27T12:54:36.768Z,100084.33
2018-07-27T12:57:04.819Z,100079.25
2018-07-27T12:59:32.980Z,100071.59
2018-07-27T13:02:01.045Z,100076.13
2018-07-27T13:04:29.726Z,100071.16
2018-07-27T13:06:57.794Z,100062.57
2018-07-27T13:09:25.867Z,100069.33
2018-07-27T13:11:53.920Z,100068.17
2018-07-27T13:14:21.992Z,100066.60
2018-07-27T13:16:50.041Z,100067.13
2018-07-27T13:19:18.112Z,100061.58
2018-07-27T13:21:46.207Z,100055.08
2018-07-27T13:24:14.222Z,100052.97
2018-07-27T13:26:42.329Z,100044.02
2018-07-27T13:29:10.347Z,100043.48
2018-07-27T13:31:48.322Z,100040.20
2018-07-27T13:34:56.570Z,100043.74
2018-07-27T13:37:25.928Z,100034.88
2018-07-27T13:39:56.156Z,100025.54
2018-07-27T13:42:25.427Z,100021.13
2018-07-27T13:44:53.503Z,100017.87
2018-07-27T13:47:21.864Z,100010.72
2018-07-27T13:49:49.983Z,100015.14
2018-07-27T13:52:18.067Z,100008.59
2018-07-27T13:54:46.157Z,100005.70
2018-07-27T13:57:14.199Z,100003.20
2018-07-27T13:59:42.266Z,99994.37
2018-07-27T14:02:10.665Z,99989.12
2018-07-27T14:04:38.695Z,99985.11
2018-07-27T14:07:07.640Z,99988.72
2018-07-27T14:09:35.675Z,99986.27
2018-07-27T14:12:03.738Z,99989.77
2018-07-27T14:14:31.787Z,99980.64
2018-07-27T14:16:59.855Z,99977.78
2018-07-27T14:19:28.638Z,99974.41
2018-07-27T14:21:56.704Z,99970.52
2018-07-27T14:24:24.783Z,99967.59
2018-07-27T14:26:52.899Z,99970.69
2018-07-27T14:29:21.004Z,99962.05
2018-07-27T14:31:49.091Z,99962.42
2018-07-27T14:34:17.147Z,99954.67
2018-07-27T14:36:45.222Z,99954.12
2018-07-27T14:39:14.282Z,99957.07
2018-07-27T14:41:42.674Z,99955.13
2018-07-27T14:44:10.743Z,99955.03
2018-07-27T14:46:39.172Z,99945.23
2018-07-27T14:49:09.714Z,99948.39
2018-07-27T14:51:37.732Z,99947.59
2018-07-27T14:54:07.091Z,99935.13
2018-07-27T14:56:35.110Z,99937.81
2018-07-27T14:59:03.187Z,99934.86
2018-07-27T15:01:31.259Z,99934.84
2018-07-27T15:03:59.293Z,99934.42
2018-07-27T15:06:27.327Z,99929.91
2018-07-27T15:08:55.371Z,99924.55
2018-07-27T15:11:23.415Z,99923.02
2018-07-27T15:13:51.462Z,99916.09
2018-07-27T15:16:19.545Z,99913.92
2018-07-27T15:18:47.619Z,99909.77
2018-07-27T15:21:15.650Z,99924.83
2018-07-27T15:23:43.707Z,99909.08
2018-07-27T15:26:11.754Z,99914.70
2018-07-27T15:28:39.803Z,99900.75
2018-07-27T15:31:07.894Z,99903.70
2018-07-27T15:33:35.895Z,99909.27
2018-07-27T15:36:03.919Z,99900.31
2018-07-27T15:38:31.955Z,99899.55
2018-07-27T15:40:59.977Z,99891.89
2018-07-27T15:43:28.044Z,99891.15
2018-07-27T15:45:56.084Z,99888.18
2018-07-27T15:48:24.153Z,99886.05
2018-07-27T15:50:52.143Z,99891.55
2018-07-27T15:53:20.206Z,99883.85
2018-07-27T15:55:48.242Z,99884.69
2018-07-27T15:58:16.443Z,99881.63
2018-07-27T16:00:44.483Z,99882.59
2018-07-27T16:03:12.502Z,99875.74
2018-07-27T16:05:40.559Z,99876.49
2018-07-27T16:08:08.601Z,99879.17
2018-07-27T16:10:36.773Z,99873.03
2018-07-27T16:13:04.798Z,99867.80
2018-07-27T16:15:33.154Z,99861.16
2018-07-27T16:18:01.218Z,99860.50
2018-07-27T16:20:29.326Z,99864.16
2018-07-27T16:22:57.399Z,99866.23
2018-07-27T16:25:25.434Z,99867.17
2018-07-27T16:27:53.800Z,99855.23
2018-07-27T16:30:21.827Z,99856.95
2018-07-27T16:32:49.855Z,99848.08
2018-07-27T16:35:17.911Z,99846.65
2018-07-27T16:37:45.951Z,99846.28
2018-07-27T16:40:14.201Z,99844.25
2018-07-27T16:42:42.194Z,99838.84
2018-07-27T16:45:10.292Z,99845.58
2018-07-27T16:47:38.343Z,99837.04
2018-07-27T16:50:07.208Z,99845.55
2018-07-27T16:52:35.226Z,99844.53
2018-07-27T16:55:03.273Z,99851.65
2018-07-27T16:57:31.310Z,99849.20
2018-07-27T16:59:59.399Z,99846.06
2018-07-27T17:02:27.455Z,99839.78
2018-07-27T17:04:55.491Z,99841.03
2018-07-27T17:07:23.563Z,99843.62
2018-07-27T17:09:51.599Z,99834.42
2018-07-27T17:12:19.635Z,99835.66
2018-07-27T17:14:47.664Z,99846.62
2018-07-27T17:17:16.024Z,99842.83
2018-07-27T17:19:44.018Z,99839.05
2018-07-27T17:22:12.116Z,99839.84
2018-07-27T17:24:40.331Z,99846.26
2018-07-27T17:27:08.356Z,99841.50
2018-07-27T17:29:36.419Z,99834.62
2018-07-27T17:32:04.479Z,99841.67
2018-07-27T17:34:32.512Z,99845.70
2018-07-27T17:37:00.710Z,99838.06
2018-07-27T17:39:28.733Z,99845.97
2018-07-27T17:41:56.767Z,99847.47
2018-07-27T17:44:24.800Z,99849.34
2018-07-27T17:46:52.844Z,99851.59
2018-07-27T17:49:20.886Z,99854.20
2018-07-27T17:51:49.829Z,99850.75
2018-07-27T17:54:17.890Z,99851.70
2018-07-27T17:56:45.928Z,99855.62
2018-07-27T17:59:13.951Z,99869.13
2018-07-27T18:01:42.018Z,99859.52
2018-07-27T18:04:10.028Z,99858.48
2018-07-27T18:06:38.068Z,99862.11
2018-07-27T18:09:09.115Z,99856.95
2018-07-27T18:11:37.539Z,99852.00
2018-07-27T18:14:05.610Z,99850.09
2018-07-27T18:16:33.667Z,99853.86
2018-07-27T18:19:01.781Z,99855.70
2018-07-27T18:21:29.774Z,99849.67
2018-07-27T18:23:57.892Z,99850.86
2018-07-27T18:26:26.091Z,99850.22
2018-07-27T18:28:54.160Z,99862.78
2018-07-27T18:31:22.351Z,99854.48
2018-07-27T18:33:50.398Z,99854.12
2018-07-27T18:36:18.468Z,99857.73
2018-07-27T18:38:46.511Z,99855.91
2018-07-27T18:41:14.560Z,99854.62
2018-07-27T18:43:42.844Z,99859.66
2018-07-27T18:46:10.894Z,99856.27
2018-07-27T18:48:39.648Z,99857.14
2018-07-27T18:51:08.652Z,99850.78
2018-07-27T18:53:39.397Z,99855.41
2018-07-27T18:56:09.030Z,99858.14
2018-07-27T18:58:39.569Z,99856.41
2018-07-27T19:01:10.155Z,99857.19
2018-07-27T19:03:38.750Z,99854.53
2018-07-27T19:06:07.870Z,99851.90
2018-07-27T19:08:36.989Z,99843.82
2018-07-27T19:11:06.058Z,99842.78
2018-07-27T19:13:34.930Z,99840.05
2018-07-27T19:16:03.904Z,99841.80
2018-07-27T19:18:32.769Z,99833.91
2018-07-27T19:21:04.898Z,99836.58
2018-07-27T19:23:35.086Z,99844.00
2018-07-27T19:26:03.880Z,99805.39
2018-07-27T19:28:32.807Z,99842.02
2018-07-27T19:31:03.464Z,99846.38
2018-07-27T19:33:32.880Z,99840.23
2018-07-27T19:36:02.262Z,99835.94
2018-07-27T19:38:31.735Z,99843.16
2018-07-27T19:41:01.221Z,99836.77
2018-07-27T19:43:31.890Z,99850.44
2018-07-27T19:46:01.626Z,99775.98
2018-07-27T19:48:31.483Z,99849.13
2018-07-27T19:51:00.609Z,99856.12
2018-07-27T19:56:21.887Z,99847.17
2018-07-27T19:58:51.473Z,99857.98
2018-07-27T20:01:20.269Z,99858.08
2018-07-27T20:03:49.678Z,99866.23
2018-07-27T20:06:18.699Z,99851.09
2018-07-27T20:08:47.505Z,99848.69
2018-07-27T20:11:16.432Z,99848.78
2018-07-27T20:13:44.999Z,99823.14
2018-07-27T20:16:13.475Z,99842.47
2018-07-27T20:18:42.193Z,99848.42
2018-07-27T20:21:11.200Z,99849.66
2018-07-27T20:23:39.964Z,99854.50
2018-07-27T20:26:08.490Z,99851.59
2018-07-27T20:28:36.961Z,99857.21
2018-07-27T20:31:06.133Z,99854.17
2018-07-27T20:33:36.030Z,99853.81
2018-07-27T20:36:04.743Z,99848.01
2018-07-27T20:38:33.933Z,99851.53
2018-07-27T20:41:03.664Z,99843.45
2018-07-27T20:43:32.998Z,99838.77
2018-07-27T20:46:02.459Z,99840.34
2018-07-27T20:48:31.784Z,99837.75
2018-07-27T20:51:00.804Z,99834.05
2018-07-27T20:53:29.571Z,99838.31
2018-07-27T20:55:58.486Z,99843.30
2018-07-27T20:58:30.208Z,99845.00
2018-07-27T21:00:58.336Z,99847.52
2018-07-27T21:03:26.563Z,99837.73
2018-07-27T21:05:55.991Z,99834.68
2018-07-27T21:08:24.202Z,99843.64
2018-07-27T21:10:53.865Z,99848.00
2018-07-27T21:13:22.562Z,99845.58
2018-07-27T21:15:51.126Z,99850.14
2018-07-27T21:18:21.577Z,99850.70
2018-07-27T21:20:50.382Z,99852.78
2018-07-27T21:23:18.573Z,99843.84
2018-07-27T21:25:50.109Z,99850.19
2018-07-27T21:28:19.244Z,99847.89
2018-07-27T21:30:48.173Z,99846.81
2018-07-27T21:33:17.385Z,99848.75
2018-07-27T21:35:46.653Z,99847.36
2018-07-27T21:38:15.770Z,99845.05
2018-07-27T21:40:44.959Z,99842.73
2018-07-27T21:43:13.794Z,99847.80
2018-07-27T21:45:42.543Z,99845.93
2018-07-27T21:48:11.651Z,99853.70
2018-07-27T21:50:40.676Z,99845.22
2018-07-27T21:53:08.983Z,99845.55
2018-07-27T21:55:37.020Z,99842.27
2018-07-27T21:58:05.120Z,99843.58
2018-07-27T22:00:33.962Z,99839.50
2018-07-27T22:03:03.043Z,99851.66
2018-07-27T22:05:31.091Z,99850.89
2018-07-27T22:07:59.124Z,99854.09
2018-07-27T22:10:27.163Z,99857.58
2018-07-27T22:12:56.016Z,99860.30
2018-07-27T22:15:25.202Z,99858.63
2018-07-27T22:17:53.295Z,99848.43
2018-07-27T22:20:22.727Z,99850.21
2018-07-27T22:22:51.809Z,99839.23
2018-07-27T22:25:20.835Z,99841.14
2018-07-27T22:27:50.948Z,99836.59
2018-07-27T22:30:19.897Z,99839.09
2018-07-27T22:32:49.300Z,99833.44
2018-07-27T22:35:19.342Z,99823.87
2018-07-27T22:37:49.303Z,99830.48
2018-07-27T22:40:18.037Z,99832.84
2018-07-27T22:42:46.688Z,99829.23
2018-07-27T22:45:16.331Z,99834.72
2018-07-27T22:47:44.503Z,99835.38
2018-07-27T22:50:12.793Z,99837.58
2018-07-27T22:52:41.560Z,99833.98
2018-07-27T22:55:11.604Z,99831.32
2018-07-27T22:57:40.779Z,99843.09
2018-07-27T23:00:11.634Z,99839.50
2018-07-27T23:02:40.232Z,99839.04
2018-07-27T23:05:08.315Z,99834.17
2018-07-27T23:07:37.264Z,99827.59
2018-07-27T23:10:05.922Z,99824.92
2018-07-27T23:12:34.020Z,99821.33
2018-07-27T23:15:02.314Z,99822.44
2018-07-27T23:17:30.696Z,99815.66
2018-07-27T23:19:59.332Z,99821.97
2018-07-27T23:22:28.097Z,99815.98
2018-07-27T23:24:56.990Z,99813.32
2018-07-27T23:27:25.925Z,99807.69
2018-07-27T23:29:54.630Z,99810.19
2018-07-27T23:32:23.350Z,99810.80
2018-07-27T23:34:52.202Z,99806.58
2018-07-27T23:37:21.124Z,99802.96
2018-07-27T23:39:50.602Z,99798.09
2018-07-27T23:42:21.188Z,99789.17
2018-07-27T23:44:51.049Z,99793.25
2018-07-27T23:47:20.793Z,99781.31
2018-07-27T23:49:50.898Z,99784.45
2018-07-27T23:52:26.516Z,99776.00
2018-07-27T23:54:54.810Z,99775.85
2018-07-27T23:57:23.011Z,99773.31
2018-07-27T23:59:52.595Z,99772.55
